Dassault Falcon 20 F5 from Jet Management Holland at Eindhoven.
 Regi:PH-BPS  LARGER
 MSN Year:321 1974
 Date of picture:2007-07-12 09:52
 Logs:
 Metar 12/07/2007 09:25 METAR EHEH 120925Z 23011KT 9999 FEW023 SCT026 BKN050 18/13 Q1015 BLU BLU=
 Hits: 477 ID: 82

Debriefing: Photographed movements of Airports in NW-Europe.
The images of our site attendant is in authorisation from Queen of Sky.
Copying of images of this site have been prohibited in which manner without the authorisation of the photographer.
In behalf of the crew :"Thank you visiting us" - Contact
Factsheets Dassault, Falcon 20 F5, Jet Management Holland, made by De Plane! © 2006 - 2022 All rights reserved


.